WetterOnline ( https://www.wetteronline.de )

Wetter aktuell Neuwied

Aktuelles Wetter: Andernach (75m)

6-stündlich | Neueste Meldungen
Ortszeit Temperatur Wetter
Do, 27.01. 7:00 2.2° C bedeckt
Do, 27.01. 1:00 1.9° C bedeckt
Mi, 26.01. 19:00 2.9° C bedeckt
Mi, 26.01. 13:00 2.0° C bedeckt
Mi, 26.01. 7:00 2.1° C bedeckt
Mi, 26.01. 1:00 1.3° C bedeckt
Di, 25.01. 19:00 2.2° C bedeckt
Di, 25.01. 13:00 1.6° C bedeckt
Ortszeit Temperatur Wetter
Do, 27.01. 9:30 2.6° C bewölkt
Do, 27.01. 9:20 2.6° C bewölkt
Do, 27.01. 9:10 2.5° C bedeckt
Do, 27.01. 9:00 2.4° C bedeckt
Do, 27.01. 8:50 2.4° C bedeckt
Do, 27.01. 8:40 2.3° C bedeckt
Do, 27.01. 8:30 2.3° C bedeckt
Do, 27.01. 8:00 2.2° C bedeckt
Do, 27.01. 7:30 2.3° C bedeckt
Do, 27.01. 7:00 2.2° C bedeckt
Do, 27.01. 6:30 1.9° C bedeckt
Ortszeit Relative Feuchte Sichtweite
Do, 27.01. 7:00 78% 18 km
Do, 27.01. 1:00 79% 12 km
Mi, 26.01. 19:00 74% 21 km
Mi, 26.01. 13:00 79% 21 km
Mi, 26.01. 7:00 88% 12 km
Mi, 26.01. 1:00 94% 7 km
Di, 25.01. 19:00 91% 9 km
Di, 25.01. 13:00 93% 8 km
Ortszeit Relative Feuchte Sichtweite
Do, 27.01. 9:30 82% 13 km
Do, 27.01. 9:20 82% -
Do, 27.01. 9:10 82% -
Do, 27.01. 9:00 82% 13 km
Do, 27.01. 8:50 82% -
Do, 27.01. 8:40 82% -
Do, 27.01. 8:30 81% 14 km
Do, 27.01. 8:00 80% 16 km
Do, 27.01. 7:30 79% 19 km
Do, 27.01. 7:00 78% 18 km
Do, 27.01. 6:30 79% 16 km
Ortszeit Niederschlagsmenge Niederschlagsart
Do, 27.01. 7:00 0.0 l/m2 in 12 Std. -
Do, 27.01. 1:00 0.0 l/m2 in 6 Std. -
Mi, 26.01. 19:00 0.1 l/m2 in 12 Std. Sprühregen
Mi, 26.01. 13:00 0.1 l/m2 in 6 Std. Sprühregen
Mi, 26.01. 7:00 0.1 l/m2 in 12 Std. Sprühregen
Mi, 26.01. 1:00 0.0 l/m2 in 6 Std. -
Di, 25.01. 19:00 0.0 l/m2 in 12 Std. -
Di, 25.01. 13:00 0.0 l/m2 in 6 Std. -
Ortszeit Niederschlagsmenge Niederschlagsart
Do, 27.01. 9:30 0.0 l/m2 in 1 Std. -
Do, 27.01. 9:20 keine Meldung -
Do, 27.01. 9:10 keine Meldung -
Do, 27.01. 9:00 0.0 l/m2 in 1 Std. -
Do, 27.01. 8:50 keine Meldung -
Do, 27.01. 8:40 keine Meldung -
Do, 27.01. 8:30 0.0 l/m2 in 1 Std. -
Do, 27.01. 8:00 0.0 l/m2 in 1 Std. -
Do, 27.01. 7:30 0.0 l/m2 in 1 Std. -
Do, 27.01. 7:00 0.0 l/m2 in 1 Std. -
Do, 27.01. 6:30 0.0 l/m2 in 1 Std. -
Ortszeit Stärke Spitze Richtung
km/h Bft. km/h Grad Sektor
Do, 27.01. 7:00 11 2 18 200° S
Do, 27.01. 1:00 7 2 22 220° SW
Mi, 26.01. 19:00 7 2 20 300° NW
Mi, 26.01. 13:00 9 2 26 220° SW
Mi, 26.01. 7:00 4 1 14 240° SW
Mi, 26.01. 1:00 7 2 18 220° SW
Di, 25.01. 19:00 7 2 11 190° S
Di, 25.01. 13:00 4 1 14 320° NW
Ortszeit Stärke Spitze Richtung
km/h Bft. km/h Grad Sektor
Do, 27.01. 9:30 15 3 24 200° S
Do, 27.01. 9:20 15 3 - 200° S
Do, 27.01. 9:10 14 3 - 200° S
Do, 27.01. 9:00 15 3 30 200° S
Do, 27.01. 8:50 15 3 - 200° S
Do, 27.01. 8:40 17 3 - 200° S
Do, 27.01. 8:30 18 3 29 210° SW
Do, 27.01. 8:00 18 3 29 200° S
Do, 27.01. 7:30 13 3 20 210° SW
Do, 27.01. 7:00 11 2 18 200° S
Do, 27.01. 6:30 4 1 11 170° S
Ortszeit Untergrenze Bedeckung Gattung
total tief tief mittel hoch
Do, 27.01. 7:00 570 m 8/8 8/8 - - -
Do, 27.01. 1:00 480 m 8/8 8/8 - - -
Mi, 26.01. 19:00 570 m 8/8 8/8 - - -
Mi, 26.01. 13:00 510 m 8/8 8/8 - - -
Mi, 26.01. 7:00 390 m 8/8 8/8 - - -
Mi, 26.01. 1:00 270 m 8/8 8/8 - - -
Di, 25.01. 19:00 240 m 8/8 8/8 - - -
Di, 25.01. 13:00 150 m 8/8 8/8 - - -
Ortszeit Bedeckungsgrad in Achtel und Wolkenuntergrenze
Do, 27.01. 9:30 7(690m)
Do, 27.01. 9:20 7(690m)
Do, 27.01. 9:10 8
Do, 27.01. 9:00 8(660m)
Do, 27.01. 8:50 8(660m)
Do, 27.01. 8:40 8
Do, 27.01. 8:30 8(630m)
Do, 27.01. 8:00 8(600m)
Do, 27.01. 7:30 8(660m)
Do, 27.01. 7:00 8(570m)
Do, 27.01. 6:30 8(540m)
Ortszeit Luftdruck NN (hPa) Tendenz (hPa in 3 Std.)
Do, 27.01. 7:00 1029 - 1,3
Do, 27.01. 1:00 1031 - 1,0
Mi, 26.01. 19:00 1033 + 0,2
Mi, 26.01. 13:00 1034 + 0,3
Mi, 26.01. 7:00 1033 - 0,6
Mi, 26.01. 1:00 1034 - 0,4
Di, 25.01. 19:00 1034 - 0,2
Di, 25.01. 13:00 1035 + 0,1
Ortszeit Luftdruck NN (hPa) Tendenz (hPa in 3 Std.)
Do, 27.01. 9:30 1027 - 2,0
Do, 27.01. 9:20 1027 keine Meldung
Do, 27.01. 9:10 1027 keine Meldung
Do, 27.01. 9:00 1027 - 2,1
Do, 27.01. 8:50 1027 keine Meldung
Do, 27.01. 8:40 1027 keine Meldung
Do, 27.01. 8:30 1028 - 2,1
Do, 27.01. 8:00 1028 - 1,8
Do, 27.01. 7:30 1028 - 1,5
Do, 27.01. 7:00 1029 - 1,3
Do, 27.01. 6:30 1029 - 1,1
Ortszeit Schneehöhe (cm)
Do, 27.01. 7:00 0
Do, 27.01. 1:00 0
Mi, 26.01. 19:00 0
Mi, 26.01. 13:00 0
Mi, 26.01. 7:00 0
Mi, 26.01. 1:00 0
Di, 25.01. 19:00 0
Di, 25.01. 13:00 0
Ortszeit Schneehöhe (cm)
Do, 27.01. 9:30 0
Do, 27.01. 9:20 0
Do, 27.01. 9:10 0
Do, 27.01. 9:00 0
Do, 27.01. 8:50 0
Do, 27.01. 8:40 0
Do, 27.01. 8:30 0
Do, 27.01. 8:00 0
Do, 27.01. 7:30 0
Do, 27.01. 7:00 0
Do, 27.01. 6:30 0
Link zu dieser Seite / Seite empfehlen

Das Wetter in ...